createdAt,value
2023-10-06T00:03:58.461Z,101167.19
2023-10-06T00:09:06.553Z,101155.28
2023-10-06T00:14:20.289Z,101159.75
2023-10-06T00:19:27.826Z,101167.03
2023-10-06T00:24:32.534Z,101163.72
2023-10-06T00:29:38.522Z,101159.25
2023-10-06T00:34:41.441Z,101159.41
2023-10-06T00:39:45.728Z,101159.22
2023-10-06T00:44:50.303Z,101165.22
2023-10-06T00:49:56.572Z,101161.25
2023-10-06T00:55:05.466Z,101160.91
2023-10-06T01:00:17.631Z,101154.78
2023-10-06T01:05:21.430Z,101153.44
2023-10-06T01:10:29.320Z,101155.94
2023-10-06T01:15:33.892Z,101161.09
2023-10-06T01:20:42.227Z,101167.03
2023-10-06T01:25:46.455Z,101167.19
2023-10-06T01:30:51.603Z,101151.13
2023-10-06T01:35:56.082Z,101132.91
2023-10-06T01:41:03.529Z,101134.91
2023-10-06T01:46:09.082Z,101136.53
2023-10-06T01:51:16.199Z,101146.16
2023-10-06T01:56:23.384Z,101150.81
2023-10-06T02:01:26.353Z,101136.53
2023-10-06T02:06:30.730Z,101149.97
2023-10-06T02:11:35.028Z,101148.16
2023-10-06T02:16:38.331Z,101138.38
2023-10-06T02:21:43.858Z,101137.69
2023-10-06T02:26:51.898Z,101132.09
2023-10-06T02:32:02.078Z,101135.56
2023-10-06T02:37:05.563Z,101131.59
2023-10-06T02:42:10.741Z,101129.41
2023-10-06T02:47:15.511Z,101131.72
2023-10-06T02:52:22.162Z,101130.59
2023-10-06T02:57:26.866Z,101138.72
2023-10-06T03:02:33.567Z,101136.22
2023-10-06T03:07:39.674Z,101139.38
2023-10-06T03:12:44.856Z,101134.56
2023-10-06T03:17:47.954Z,101134.38
2023-10-06T03:22:53.033Z,101133.91
2023-10-06T03:27:58.899Z,101140.22
2023-10-06T03:33:04.789Z,101146.16
2023-10-06T03:38:28.746Z,101137.03
2023-10-06T03:43:36.928Z,101144.13
2023-10-06T03:48:40.660Z,101139.16
2023-10-06T03:53:45.985Z,101138.50
2023-10-06T03:58:50.572Z,101143.28
2023-10-06T04:03:54.900Z,101140.13
2023-10-06T04:09:00.607Z,101138.28
2023-10-06T04:14:05.697Z,101142.88
2023-10-06T04:19:08.655Z,101154.75
2023-10-06T04:24:11.885Z,101139.97
2023-10-06T04:29:16.117Z,101136.84
2023-10-06T04:34:28.203Z,101143.72
2023-10-06T04:39:31.060Z,101150.81
2023-10-06T04:44:35.783Z,101155.31
2023-10-06T04:49:38.671Z,101160.59
2023-10-06T04:54:41.805Z,101161.94
2023-10-06T04:59:46.758Z,101155.72
2023-10-06T05:04:49.642Z,101168.41
2023-10-06T05:09:56.570Z,101157.72
2023-10-06T05:15:01.213Z,101161.88
2023-10-06T05:20:05.626Z,101150.63
2023-10-06T05:25:14.313Z,101147.16
2023-10-06T05:30:18.609Z,101155.28
2023-10-06T05:35:24.134Z,101157.75
2023-10-06T05:40:30.736Z,101156.78
2023-10-06T05:45:35.179Z,101156.28
2023-10-06T05:50:38.317Z,101173.66
2023-10-06T05:55:42.576Z,101173.31
2023-10-06T06:00:52.134Z,101178.28
2023-10-06T06:05:58.565Z,101184.97
2023-10-06T06:11:01.934Z,101181.41
2023-10-06T06:16:07.162Z,101164.53
2023-10-06T06:21:10.329Z,101177.28
2023-10-06T06:26:13.204Z,101169.47
2023-10-06T06:31:19.407Z,101160.88
2023-10-06T06:36:22.449Z,101150.88
2023-10-06T06:41:25.363Z,101145.09
2023-10-06T06:46:31.258Z,101150.09
2023-10-06T06:51:36.617Z,101142.81
2023-10-06T06:56:39.686Z,101149.94
2023-10-06T07:01:43.896Z,101149.28
2023-10-06T07:06:46.944Z,101164.78
2023-10-06T07:11:51.124Z,101176.66
2023-10-06T07:16:55.592Z,101211.75
2023-10-06T07:21:58.462Z,101206.34
2023-10-06T07:27:01.301Z,101191.31
2023-10-06T07:32:06.206Z,101193.50
2023-10-06T07:37:09.166Z,101181.00
2023-10-06T07:42:14.389Z,101184.47
2023-10-06T07:47:25.458Z,101185.50
2023-10-06T07:52:28.390Z,101196.31
2023-10-06T07:57:34.077Z,101183.41
2023-10-06T08:02:40.463Z,101158.06
2023-10-06T08:07:45.027Z,101165.56
2023-10-06T08:12:51.163Z,101177.00
2023-10-06T08:17:57.067Z,101172.03
2023-10-06T08:23:01.027Z,101162.75
2023-10-06T08:28:06.224Z,101140.69
2023-10-06T08:33:10.911Z,101152.47
2023-10-06T08:38:13.853Z,101147.28
2023-10-06T08:43:20.178Z,101146.78
2023-10-06T08:48:26.433Z,101113.31
2023-10-06T08:53:33.454Z,101097.25
2023-10-06T08:58:37.392Z,101101.84
2023-10-06T09:03:41.922Z,101109.06
2023-10-06T09:08:47.005Z,101114.13
2023-10-06T09:14:08.873Z,101083.47
2023-10-06T09:19:13.621Z,101079.94
2023-10-06T09:24:20.731Z,101079.13
2023-10-06T09:29:32.156Z,101068.78
2023-10-06T09:34:36.738Z,101090.22
2023-10-06T09:39:40.631Z,101075.00
2023-10-06T09:44:44.109Z,101071.41
2023-10-06T09:49:50.498Z,101090.50
2023-10-06T09:54:55.852Z,101085.59
2023-10-06T10:00:00.007Z,101075.06
2023-10-06T10:05:06.639Z,101081.66
2023-10-06T10:10:12.091Z,101066.72
2023-10-06T10:15:23.242Z,101079.72
2023-10-06T10:20:27.929Z,101070.09
2023-10-06T10:25:32.270Z,101060.75
2023-10-06T10:30:50.641Z,101037.91
2023-10-06T10:36:25.718Z,101028.09
2023-10-06T10:41:32.085Z,101010.88
2023-10-06T10:46:41.826Z,100994.78
2023-10-06T10:51:55.266Z,100994.41
2023-10-06T10:57:03.419Z,100986.28
2023-10-06T11:02:09.286Z,100975.00
2023-10-06T11:07:16.720Z,100981.78
2023-10-06T11:17:48.355Z,100967.22
2023-10-06T11:22:58.822Z,100968.44
2023-10-06T11:28:05.496Z,100977.13
2023-10-06T11:33:11.232Z,100968.34
2023-10-06T11:38:17.185Z,100970.34
2023-10-06T11:43:22.376Z,100961.56
2023-10-06T11:48:26.569Z,100945.06
2023-10-06T11:53:33.644Z,100939.28
2023-10-06T11:58:37.315Z,100937.19
2023-10-06T12:03:43.240Z,100944.56
2023-10-06T12:08:53.204Z,100933.31
2023-10-06T12:13:56.195Z,100928.91
2023-10-06T12:19:00.972Z,100920.53
2023-10-06T12:24:05.865Z,100915.03
2023-10-06T12:29:09.217Z,100914.50
2023-10-06T12:34:16.380Z,100899.13
2023-10-06T12:39:34.622Z,100885.63
2023-10-06T12:44:41.410Z,100886.47
2023-10-06T12:49:45.270Z,100879.53
2023-10-06T12:54:49.474Z,100869.03
2023-10-06T12:59:52.257Z,100870.16
2023-10-06T13:04:55.416Z,100849.09
2023-10-06T13:10:03.237Z,100843.50
2023-10-06T13:15:07.969Z,100836.91
2023-10-06T13:20:14.860Z,100835.41
2023-10-06T13:25:19.663Z,100825.59
2023-10-06T13:30:22.645Z,100807.91
2023-10-06T13:35:26.150Z,100798.50
2023-10-06T13:40:30.901Z,100793.22
2023-10-06T13:45:35.608Z,100769.00
2023-10-06T13:50:38.777Z,100762.75
2023-10-06T13:55:43.281Z,100746.19
2023-10-06T14:00:46.165Z,100740.22
2023-10-06T14:05:52.850Z,100739.19
2023-10-06T14:10:58.190Z,100737.91
2023-10-06T14:16:10.344Z,100731.75
2023-10-06T14:21:14.697Z,100752.09
2023-10-06T14:26:20.218Z,100750.94
2023-10-06T14:31:27.246Z,100749.28
2023-10-06T14:36:30.416Z,100743.91
2023-10-06T14:41:52.291Z,100740.28
2023-10-06T14:46:55.262Z,100741.03
2023-10-06T14:51:59.639Z,100736.97
2023-10-06T14:57:06.237Z,100713.72
2023-10-06T15:07:34.538Z,100721.75
2023-10-06T15:12:38.660Z,100699.09
2023-10-06T15:17:41.871Z,100688.66
2023-10-06T15:22:44.791Z,100683.50
2023-10-06T15:27:49.389Z,100673.28
2023-10-06T15:32:52.337Z,100668.91
2023-10-06T15:37:57.351Z,100664.88
2023-10-06T15:43:13.343Z,100673.94
2023-10-06T15:48:22.633Z,100666.81
2023-10-06T15:53:27.597Z,100672.41
2023-10-06T15:58:33.655Z,100678.97
2023-10-06T16:03:36.691Z,100679.34
2023-10-06T16:08:40.053Z,100668.81
2023-10-06T16:13:44.930Z,100674.56
2023-10-06T16:18:48.834Z,100677.38
2023-10-06T16:23:53.328Z,100675.69
2023-10-06T16:28:58.627Z,100683.38
2023-10-06T16:34:01.470Z,100676.47
2023-10-06T16:39:16.962Z,100682.13
2023-10-06T16:44:23.367Z,100675.38
2023-10-06T16:49:26.445Z,100676.75
2023-10-06T16:54:29.569Z,100686.97
2023-10-06T16:59:36.461Z,100679.19
2023-10-06T17:04:40.244Z,100682.84
2023-10-06T17:09:44.141Z,100685.25
2023-10-06T17:14:48.426Z,100685.06
2023-10-06T17:19:51.725Z,100688.91
2023-10-06T17:24:54.620Z,100676.38
2023-10-06T17:29:59.404Z,100684.97
2023-10-06T17:35:02.987Z,100674.47
2023-10-06T17:40:07.208Z,100679.50
2023-10-06T17:45:12.285Z,100688.69
2023-10-06T17:50:15.176Z,100692.59
2023-10-06T17:55:18.536Z,100696.47
2023-10-06T18:00:22.946Z,100684.88
2023-10-06T18:05:26.912Z,100681.94
2023-10-06T18:10:30.345Z,100687.22
2023-10-06T18:15:35.095Z,100654.53
2023-10-06T18:20:39.308Z,100652.41
2023-10-06T18:25:42.502Z,100649.44
2023-10-06T18:30:49.091Z,100638.69
2023-10-06T18:35:51.971Z,100638.84
2023-10-06T18:40:57.135Z,100636.31
2023-10-06T18:46:01.793Z,100623.53
2023-10-06T18:51:05.176Z,100638.78
2023-10-06T18:56:08.371Z,100642.25
2023-10-06T19:01:14.405Z,100646.81
2023-10-06T19:06:18.996Z,100649.75
2023-10-06T19:11:22.497Z,100642.41
2023-10-06T19:16:27.846Z,100637.66
2023-10-06T19:21:32.441Z,100629.47
2023-10-06T19:26:36.261Z,100642.56
2023-10-06T19:31:41.256Z,100656.75
2023-10-06T19:36:45.505Z,100639.34
2023-10-06T19:41:48.454Z,100638.91
2023-10-06T19:46:53.261Z,100640.75
2023-10-06T19:51:59.453Z,100642.13
2023-10-06T19:57:02.893Z,100649.59
2023-10-06T20:02:10.592Z,100639.16
2023-10-06T20:07:13.835Z,100624.03
2023-10-06T20:12:16.733Z,100621.28
2023-10-06T20:17:21.511Z,100611.97
2023-10-06T20:22:24.972Z,100619.19
2023-10-06T20:27:27.900Z,100612.00
2023-10-06T20:32:32.765Z,100621.03
2023-10-06T20:37:36.217Z,100617.19
2023-10-06T20:42:39.155Z,100625.06
2023-10-06T20:47:43.876Z,100634.44
2023-10-06T20:52:46.889Z,100630.66
2023-10-06T20:57:50.957Z,100606.72
2023-10-06T21:02:56.455Z,100612.31
2023-10-06T21:07:59.587Z,100614.25
2023-10-06T21:13:03.159Z,100618.75
2023-10-06T21:18:08.306Z,100610.22
2023-10-06T21:23:11.289Z,100601.03
2023-10-06T21:28:14.135Z,100603.63
2023-10-06T21:33:18.412Z,100598.53
2023-10-06T21:38:22.261Z,100601.66
2023-10-06T21:43:25.111Z,100600.09
2023-10-06T21:48:29.433Z,100597.66
2023-10-06T21:53:33.772Z,100598.09
2023-10-06T21:58:37.593Z,100597.28
2023-10-06T22:03:41.976Z,100593.19
2023-10-06T22:08:44.990Z,100580.94
2023-10-06T22:13:48.586Z,100577.16
2023-10-06T22:18:52.777Z,100582.00
2023-10-06T22:23:55.632Z,100571.56
2023-10-06T22:28:58.450Z,100568.28
2023-10-06T22:34:02.700Z,100550.81
2023-10-06T22:39:06.842Z,100544.94
2023-10-06T22:44:10.051Z,100543.88
2023-10-06T22:49:14.430Z,100536.69
2023-10-06T22:54:18.610Z,100536.63
2023-10-06T22:59:21.713Z,100535.13
2023-10-06T23:04:27.729Z,100527.81
2023-10-06T23:09:32.653Z,100540.28
2023-10-06T23:14:35.460Z,100536.16
2023-10-06T23:19:39.643Z,100534.56
2023-10-06T23:24:51.583Z,100536.91
2023-10-06T23:29:54.543Z,100543.78
2023-10-06T23:34:58.694Z,100529.88
2023-10-06T23:40:01.506Z,100525.88
2023-10-06T23:45:07.276Z,100526.63
2023-10-06T23:50:15.276Z,100526.91
2023-10-06T23:55:18.538Z,100522.88
